sensor_id;sensor_type;location;lat;lon;timestamp;temperature;humidity
15819;DHT22;8010;53.986;12.106;2023-07-31T00:00:32;13.70;99.90
15819;DHT22;8010;53.986;12.106;2023-07-31T00:02:58;13.70;99.90
15819;DHT22;8010;53.986;12.106;2023-07-31T00:05:23;13.70;99.90
15819;DHT22;8010;53.986;12.106;2023-07-31T00:07:49;13.60;99.90
15819;DHT22;8010;53.986;12.106;2023-07-31T00:10:14;13.70;99.90
15819;DHT22;8010;53.986;12.106;2023-07-31T00:12:42;13.60;99.90
15819;DHT22;8010;53.986;12.106;2023-07-31T00:15:08;13.70;99.90
15819;DHT22;8010;53.986;12.106;2023-07-31T00:17:34;13.60;99.90
15819;DHT22;8010;53.986;12.106;2023-07-31T00:20:00;13.60;99.90
15819;DHT22;8010;53.986;12.106;2023-07-31T00:22:26;13.60;99.90
15819;DHT22;8010;53.986;12.106;2023-07-31T00:24:51;13.60;99.90
15819;DHT22;8010;53.986;12.106;2023-07-31T00:27:17;13.60;99.90
15819;DHT22;8010;53.986;12.106;2023-07-31T00:29:42;13.50;99.90
15819;DHT22;8010;53.986;12.106;2023-07-31T00:32:08;13.50;99.90
15819;DHT22;8010;53.986;12.106;2023-07-31T00:34:33;13.50;99.90
15819;DHT22;8010;53.986;12.106;2023-07-31T00:36:59;13.50;99.90
15819;DHT22;8010;53.986;12.106;2023-07-31T00:39:24;13.50;99.90
15819;DHT22;8010;53.986;12.106;2023-07-31T00:41:50;13.60;99.90
15819;DHT22;8010;53.986;12.106;2023-07-31T00:44:15;13.50;99.90
15819;DHT22;8010;53.986;12.106;2023-07-31T00:46:41;13.60;99.90
15819;DHT22;8010;53.986;12.106;2023-07-31T00:49:07;13.60;99.90
15819;DHT22;8010;53.986;12.106;2023-07-31T00:51:33;13.50;99.90
15819;DHT22;8010;53.986;12.106;2023-07-31T00:53:59;13.60;99.90
15819;DHT22;8010;53.986;12.106;2023-07-31T00:56:27;13.50;99.90
15819;DHT22;8010;53.986;12.106;2023-07-31T00:58:53;13.50;99.90
15819;DHT22;8010;53.986;12.106;2023-07-31T01:01:18;13.50;99.90
15819;DHT22;8010;53.986;12.106;2023-07-31T01:03:44;13.50;99.90
15819;DHT22;8010;53.986;12.106;2023-07-31T01:09:27;13.50;99.90
15819;DHT22;8010;53.986;12.106;2023-07-31T01:11:57;13.50;99.90
15819;DHT22;8010;53.986;12.106;2023-07-31T01:14:25;13.40;99.90
15819;DHT22;8010;53.986;12.106;2023-07-31T01:16:51;13.50;99.90
15819;DHT22;8010;53.986;12.106;2023-07-31T01:19:18;13.40;99.90
15819;DHT22;8010;53.986;12.106;2023-07-31T01:24:35;13.50;99.90
15819;DHT22;8010;53.986;12.106;2023-07-31T01:27:19;13.50;99.90
15819;DHT22;8010;53.986;12.106;2023-07-31T01:29:59;13.50;99.90
15819;DHT22;8010;53.986;12.106;2023-07-31T01:32:28;13.50;99.90
15819;DHT22;8010;53.986;12.106;2023-07-31T01:34:53;13.50;99.90
15819;DHT22;8010;53.986;12.106;2023-07-31T01:37:20;13.50;99.90
15819;DHT22;8010;53.986;12.106;2023-07-31T01:39:45;13.50;99.90
15819;DHT22;8010;53.986;12.106;2023-07-31T01:42:11;13.50;99.90
15819;DHT22;8010;53.986;12.106;2023-07-31T01:44:36;13.50;99.90
15819;DHT22;8010;53.986;12.106;2023-07-31T01:47:02;13.40;99.90
15819;DHT22;8010;53.986;12.106;2023-07-31T01:49:27;13.40;99.90
15819;DHT22;8010;53.986;12.106;2023-07-31T01:51:53;13.40;99.90
15819;DHT22;8010;53.986;12.106;2023-07-31T01:54:18;13.40;99.90
15819;DHT22;8010;53.986;12.106;2023-07-31T01:56:44;13.30;99.90
15819;DHT22;8010;53.986;12.106;2023-07-31T01:59:10;13.40;99.90
15819;DHT22;8010;53.986;12.106;2023-07-31T02:01:36;13.30;99.90
15819;DHT22;8010;53.986;12.106;2023-07-31T02:04:01;13.30;99.90
15819;DHT22;8010;53.986;12.106;2023-07-31T02:06:27;13.30;99.90
15819;DHT22;8010;53.986;12.106;2023-07-31T02:08:52;13.30;99.90
15819;DHT22;8010;53.986;12.106;2023-07-31T02:11:18;13.20;99.90
15819;DHT22;8010;53.986;12.106;2023-07-31T02:13:43;13.20;99.90
15819;DHT22;8010;53.986;12.106;2023-07-31T02:16:09;13.20;99.90
15819;DHT22;8010;53.986;12.106;2023-07-31T02:18:34;13.20;99.90
15819;DHT22;8010;53.986;12.106;2023-07-31T02:21:00;13.20;99.90
15819;DHT22;8010;53.986;12.106;2023-07-31T02:23:25;13.20;99.90
15819;DHT22;8010;53.986;12.106;2023-07-31T02:25:51;13.20;99.90
15819;DHT22;8010;53.986;12.106;2023-07-31T02:28:16;13.20;99.90
15819;DHT22;8010;53.986;12.106;2023-07-31T02:30:44;13.20;99.90
15819;DHT22;8010;53.986;12.106;2023-07-31T02:33:11;13.30;99.90
15819;DHT22;8010;53.986;12.106;2023-07-31T02:35:36;13.20;99.90
15819;DHT22;8010;53.986;12.106;2023-07-31T02:38:02;13.30;99.90
15819;DHT22;8010;53.986;12.106;2023-07-31T02:40:28;13.30;99.90
15819;DHT22;8010;53.986;12.106;2023-07-31T02:42:53;13.40;99.90
15819;DHT22;8010;53.986;12.106;2023-07-31T02:45:19;13.40;99.90
15819;DHT22;8010;53.986;12.106;2023-07-31T02:47:44;13.50;99.90
15819;DHT22;8010;53.986;12.106;2023-07-31T02:50:10;13.50;99.90
15819;DHT22;8010;53.986;12.106;2023-07-31T02:52:35;13.50;99.90
15819;DHT22;8010;53.986;12.106;2023-07-31T02:55:01;13.50;99.90
15819;DHT22;8010;53.986;12.106;2023-07-31T02:57:26;13.50;99.90
15819;DHT22;8010;53.986;12.106;2023-07-31T02:59:52;13.60;99.90
15819;DHT22;8010;53.986;12.106;2023-07-31T03:02:18;13.60;99.90
15819;DHT22;8010;53.986;12.106;2023-07-31T03:04:43;13.60;99.90
15819;DHT22;8010;53.986;12.106;2023-07-31T03:07:09;13.70;99.90
15819;DHT22;8010;53.986;12.106;2023-07-31T03:09:34;13.70;99.90
15819;DHT22;8010;53.986;12.106;2023-07-31T03:12:00;13.70;99.90
15819;DHT22;8010;53.986;12.106;2023-07-31T03:14:25;13.70;99.90
15819;DHT22;8010;53.986;12.106;2023-07-31T03:16:52;13.70;99.90
15819;DHT22;8010;53.986;12.106;2023-07-31T03:19:17;13.80;99.90
15819;DHT22;8010;53.986;12.106;2023-07-31T03:21:43;13.80;99.90
15819;DHT22;8010;53.986;12.106;2023-07-31T03:24:08;13.80;99.90
15819;DHT22;8010;53.986;12.106;2023-07-31T03:26:34;13.80;99.90
15819;DHT22;8010;53.986;12.106;2023-07-31T03:29:00;13.80;99.90
15819;DHT22;8010;53.986;12.106;2023-07-31T03:31:26;13.80;99.90
15819;DHT22;8010;53.986;12.106;2023-07-31T03:33:51;13.80;99.90
15819;DHT22;8010;53.986;12.106;2023-07-31T03:36:17;13.80;99.90
15819;DHT22;8010;53.986;12.106;2023-07-31T03:38:42;13.80;99.90
15819;DHT22;8010;53.986;12.106;2023-07-31T03:41:08;13.80;99.90
15819;DHT22;8010;53.986;12.106;2023-07-31T03:43:33;13.80;99.90
15819;DHT22;8010;53.986;12.106;2023-07-31T03:46:00;13.80;99.90
15819;DHT22;8010;53.986;12.106;2023-07-31T03:48:25;13.80;99.90
15819;DHT22;8010;53.986;12.106;2023-07-31T03:50:51;13.90;99.90
15819;DHT22;8010;53.986;12.106;2023-07-31T03:53:17;13.90;99.90
15819;DHT22;8010;53.986;12.106;2023-07-31T03:55:42;14.00;99.90
15819;DHT22;8010;53.986;12.106;2023-07-31T03:58:08;14.00;99.90
15819;DHT22;8010;53.986;12.106;2023-07-31T04:00:33;14.10;99.90
15819;DHT22;8010;53.986;12.106;2023-07-31T04:02:59;14.20;99.90
15819;DHT22;8010;53.986;12.106;2023-07-31T04:05:24;14.20;99.90
15819;DHT22;8010;53.986;12.106;2023-07-31T04:07:50;14.30;99.90
15819;DHT22;8010;53.986;12.106;2023-07-31T04:10:15;14.30;99.90
15819;DHT22;8010;53.986;12.106;2023-07-31T04:12:41;14.40;99.90
15819;DHT22;8010;53.986;12.106;2023-07-31T04:15:07;14.40;99.90
15819;DHT22;8010;53.986;12.106;2023-07-31T04:17:32;14.40;99.90
15819;DHT22;8010;53.986;12.106;2023-07-31T04:19:58;14.40;99.90
15819;DHT22;8010;53.986;12.106;2023-07-31T04:22:23;14.50;99.90
15819;DHT22;8010;53.986;12.106;2023-07-31T04:24:49;14.50;99.90
15819;DHT22;8010;53.986;12.106;2023-07-31T04:27:14;14.50;99.90
15819;DHT22;8010;53.986;12.106;2023-07-31T04:29:40;14.50;99.90
15819;DHT22;8010;53.986;12.106;2023-07-31T04:32:08;14.50;99.90
15819;DHT22;8010;53.986;12.106;2023-07-31T04:34:33;14.50;99.90
15819;DHT22;8010;53.986;12.106;2023-07-31T04:36:59;14.50;99.90
15819;DHT22;8010;53.986;12.106;2023-07-31T04:39:24;14.50;99.90
15819;DHT22;8010;53.986;12.106;2023-07-31T04:41:50;14.60;99.90
15819;DHT22;8010;53.986;12.106;2023-07-31T04:44:15;14.60;99.90
15819;DHT22;8010;53.986;12.106;2023-07-31T04:46:41;14.60;99.90
15819;DHT22;8010;53.986;12.106;2023-07-31T04:49:06;14.70;99.90
15819;DHT22;8010;53.986;12.106;2023-07-31T04:51:32;14.70;99.90
15819;DHT22;8010;53.986;12.106;2023-07-31T04:53:57;14.70;99.90
15819;DHT22;8010;53.986;12.106;2023-07-31T04:56:23;14.80;99.90
15819;DHT22;8010;53.986;12.106;2023-07-31T04:58:48;14.80;99.90
15819;DHT22;8010;53.986;12.106;2023-07-31T05:01:14;14.90;99.90
15819;DHT22;8010;53.986;12.106;2023-07-31T05:03:39;15.00;99.90
15819;DHT22;8010;53.986;12.106;2023-07-31T05:06:05;15.00;99.90
15819;DHT22;8010;53.986;12.106;2023-07-31T05:08:30;15.10;99.90
15819;DHT22;8010;53.986;12.106;2023-07-31T05:10:56;15.10;99.90
15819;DHT22;8010;53.986;12.106;2023-07-31T05:13:21;15.20;99.90
15819;DHT22;8010;53.986;12.106;2023-07-31T05:15:47;15.20;99.90
15819;DHT22;8010;53.986;12.106;2023-07-31T05:18:14;15.30;99.90
15819;DHT22;8010;53.986;12.106;2023-07-31T05:20:40;15.30;99.90
15819;DHT22;8010;53.986;12.106;2023-07-31T05:23:06;15.30;99.90
15819;DHT22;8010;53.986;12.106;2023-07-31T05:25:31;15.40;99.90
15819;DHT22;8010;53.986;12.106;2023-07-31T05:27:57;15.50;99.90
15819;DHT22;8010;53.986;12.106;2023-07-31T05:30:22;15.50;99.90
15819;DHT22;8010;53.986;12.106;2023-07-31T05:32:48;15.60;99.90
15819;DHT22;8010;53.986;12.106;2023-07-31T05:35:13;15.60;99.90
15819;DHT22;8010;53.986;12.106;2023-07-31T05:37:39;15.70;99.90
15819;DHT22;8010;53.986;12.106;2023-07-31T05:40:05;15.70;99.90
15819;DHT22;8010;53.986;12.106;2023-07-31T05:42:31;15.70;99.90
15819;DHT22;8010;53.986;12.106;2023-07-31T05:44:56;15.70;99.90
15819;DHT22;8010;53.986;12.106;2023-07-31T05:47:22;15.80;99.90
15819;DHT22;8010;53.986;12.106;2023-07-31T05:49:48;15.90;99.90
15819;DHT22;8010;53.986;12.106;2023-07-31T05:52:14;15.90;99.90
15819;DHT22;8010;53.986;12.106;2023-07-31T05:54:41;16.00;99.90
15819;DHT22;8010;53.986;12.106;2023-07-31T05:57:07;16.10;99.90
15819;DHT22;8010;53.986;12.106;2023-07-31T05:59:32;16.20;99.90
15819;DHT22;8010;53.986;12.106;2023-07-31T06:01:58;16.20;99.90
15819;DHT22;8010;53.986;12.106;2023-07-31T06:04:24;16.20;99.90
15819;DHT22;8010;53.986;12.106;2023-07-31T06:06:51;16.20;99.90
15819;DHT22;8010;53.986;12.106;2023-07-31T06:09:16;16.20;99.90
15819;DHT22;8010;53.986;12.106;2023-07-31T06:11:42;16.20;99.90
15819;DHT22;8010;53.986;12.106;2023-07-31T06:14:07;16.20;99.90
15819;DHT22;8010;53.986;12.106;2023-07-31T06:16:33;16.20;99.90
15819;DHT22;8010;53.986;12.106;2023-07-31T06:18:58;16.30;99.90
15819;DHT22;8010;53.986;12.106;2023-07-31T06:21:24;16.20;99.90
15819;DHT22;8010;53.986;12.106;2023-07-31T06:23:49;16.20;99.90
15819;DHT22;8010;53.986;12.106;2023-07-31T06:26:15;16.20;99.90
15819;DHT22;8010;53.986;12.106;2023-07-31T06:28:41;16.20;99.90
15819;DHT22;8010;53.986;12.106;2023-07-31T06:31:06;16.30;99.90
15819;DHT22;8010;53.986;12.106;2023-07-31T06:33:32;16.30;99.90
15819;DHT22;8010;53.986;12.106;2023-07-31T06:35:57;16.40;99.90
15819;DHT22;8010;53.986;12.106;2023-07-31T06:38:25;16.30;99.90
15819;DHT22;8010;53.986;12.106;2023-07-31T06:40:51;16.30;99.90
15819;DHT22;8010;53.986;12.106;2023-07-31T06:43:16;16.30;99.90
15819;DHT22;8010;53.986;12.106;2023-07-31T06:45:42;16.40;99.90
15819;DHT22;8010;53.986;12.106;2023-07-31T06:48:07;16.30;99.90
15819;DHT22;8010;53.986;12.106;2023-07-31T06:50:33;16.30;99.90
15819;DHT22;8010;53.986;12.106;2023-07-31T06:52:59;16.30;99.90
15819;DHT22;8010;53.986;12.106;2023-07-31T06:55:25;16.30;99.90
15819;DHT22;8010;53.986;12.106;2023-07-31T06:57:52;16.40;99.90
15819;DHT22;8010;53.986;12.106;2023-07-31T07:00:18;16.50;99.90
15819;DHT22;8010;53.986;12.106;2023-07-31T07:02:44;16.60;99.90
15819;DHT22;8010;53.986;12.106;2023-07-31T07:05:10;16.70;99.90
15819;DHT22;8010;53.986;12.106;2023-07-31T07:07:36;16.70;99.90
15819;DHT22;8010;53.986;12.106;2023-07-31T07:10:02;16.80;99.90
15819;DHT22;8010;53.986;12.106;2023-07-31T07:12:32;17.00;99.90
15819;DHT22;8010;53.986;12.106;2023-07-31T07:14:58;17.10;99.90
15819;DHT22;8010;53.986;12.106;2023-07-31T07:17:24;17.20;99.90
15819;DHT22;8010;53.986;12.106;2023-07-31T07:19:50;17.40;99.90
15819;DHT22;8010;53.986;12.106;2023-07-31T07:22:15;17.30;99.90
15819;DHT22;8010;53.986;12.106;2023-07-31T07:24:41;17.30;99.90
15819;DHT22;8010;53.986;12.106;2023-07-31T07:27:07;17.30;99.90
15819;DHT22;8010;53.986;12.106;2023-07-31T07:29:34;17.20;99.90
15819;DHT22;8010;53.986;12.106;2023-07-31T07:31:59;17.30;99.90
15819;DHT22;8010;53.986;12.106;2023-07-31T07:34:28;17.30;99.90
15819;DHT22;8010;53.986;12.106;2023-07-31T07:36:54;17.30;99.90
15819;DHT22;8010;53.986;12.106;2023-07-31T07:39:20;17.20;99.90
15819;DHT22;8010;53.986;12.106;2023-07-31T07:41:46;17.30;99.90
15819;DHT22;8010;53.986;12.106;2023-07-31T07:44:12;17.40;99.90
15819;DHT22;8010;53.986;12.106;2023-07-31T07:46:39;17.40;99.90
15819;DHT22;8010;53.986;12.106;2023-07-31T07:49:04;17.60;99.90
15819;DHT22;8010;53.986;12.106;2023-07-31T07:51:30;17.60;99.90
15819;DHT22;8010;53.986;12.106;2023-07-31T07:53:59;17.60;99.90
15819;DHT22;8010;53.986;12.106;2023-07-31T07:56:26;17.60;99.90
15819;DHT22;8010;53.986;12.106;2023-07-31T07:58:52;17.50;99.90
15819;DHT22;8010;53.986;12.106;2023-07-31T08:01:17;17.50;99.90
15819;DHT22;8010;53.986;12.106;2023-07-31T08:03:43;17.60;99.90
15819;DHT22;8010;53.986;12.106;2023-07-31T08:06:09;17.50;99.90
15819;DHT22;8010;53.986;12.106;2023-07-31T08:08:36;17.50;99.90
15819;DHT22;8010;53.986;12.106;2023-07-31T08:11:01;17.60;99.90
15819;DHT22;8010;53.986;12.106;2023-07-31T08:13:27;17.70;99.90
15819;DHT22;8010;53.986;12.106;2023-07-31T08:15:52;17.80;99.90
15819;DHT22;8010;53.986;12.106;2023-07-31T08:18:18;17.80;99.90
15819;DHT22;8010;53.986;12.106;2023-07-31T08:20:44;17.90;99.90
15819;DHT22;8010;53.986;12.106;2023-07-31T08:23:10;17.90;99.90
15819;DHT22;8010;53.986;12.106;2023-07-31T08:25:35;17.90;99.90
15819;DHT22;8010;53.986;12.106;2023-07-31T08:28:02;18.00;99.90
15819;DHT22;8010;53.986;12.106;2023-07-31T08:30:27;18.10;99.90
15819;DHT22;8010;53.986;12.106;2023-07-31T08:32:53;18.10;99.90
15819;DHT22;8010;53.986;12.106;2023-07-31T08:35:18;18.10;99.90
15819;DHT22;8010;53.986;12.106;2023-07-31T08:37:44;18.10;99.90
15819;DHT22;8010;53.986;12.106;2023-07-31T08:40:10;18.10;99.90
15819;DHT22;8010;53.986;12.106;2023-07-31T08:42:43;18.10;99.90
15819;DHT22;8010;53.986;12.106;2023-07-31T08:45:13;18.10;99.90
15819;DHT22;8010;53.986;12.106;2023-07-31T08:47:39;18.10;99.90
15819;DHT22;8010;53.986;12.106;2023-07-31T08:50:06;18.10;99.90
15819;DHT22;8010;53.986;12.106;2023-07-31T08:52:32;18.20;99.90
15819;DHT22;8010;53.986;12.106;2023-07-31T08:54:58;18.20;99.90
15819;DHT22;8010;53.986;12.106;2023-07-31T08:57:24;18.30;99.90
15819;DHT22;8010;53.986;12.106;2023-07-31T08:59:50;18.40;99.90
15819;DHT22;8010;53.986;12.106;2023-07-31T09:02:17;18.40;99.90
15819;DHT22;8010;53.986;12.106;2023-07-31T09:04:44;18.30;99.90
15819;DHT22;8010;53.986;12.106;2023-07-31T09:07:10;18.30;99.90
15819;DHT22;8010;53.986;12.106;2023-07-31T09:09:38;18.30;99.90
15819;DHT22;8010;53.986;12.106;2023-07-31T09:12:04;18.20;99.90
15819;DHT22;8010;53.986;12.106;2023-07-31T09:14:30;18.10;99.90
15819;DHT22;8010;53.986;12.106;2023-07-31T09:16:58;18.10;99.90
15819;DHT22;8010;53.986;12.106;2023-07-31T09:19:33;18.00;99.90
15819;DHT22;8010;53.986;12.106;2023-07-31T09:21:59;18.10;99.90
15819;DHT22;8010;53.986;12.106;2023-07-31T09:24:29;18.10;99.90
15819;DHT22;8010;53.986;12.106;2023-07-31T09:26:56;18.20;99.90
15819;DHT22;8010;53.986;12.106;2023-07-31T09:29:22;18.30;99.90
15819;DHT22;8010;53.986;12.106;2023-07-31T09:31:48;18.40;99.90
15819;DHT22;8010;53.986;12.106;2023-07-31T09:34:14;18.40;99.90
15819;DHT22;8010;53.986;12.106;2023-07-31T09:36:43;18.40;99.90
15819;DHT22;8010;53.986;12.106;2023-07-31T09:39:10;18.40;99.90
15819;DHT22;8010;53.986;12.106;2023-07-31T09:41:40;18.40;99.90
15819;DHT22;8010;53.986;12.106;2023-07-31T09:44:06;18.40;99.90
15819;DHT22;8010;53.986;12.106;2023-07-31T09:46:32;18.40;99.90
15819;DHT22;8010;53.986;12.106;2023-07-31T09:49:07;18.40;99.90
15819;DHT22;8010;53.986;12.106;2023-07-31T09:51:35;18.40;99.90
15819;DHT22;8010;53.986;12.106;2023-07-31T09:54:13;18.40;99.90
15819;DHT22;8010;53.986;12.106;2023-07-31T09:56:46;18.40;99.90
15819;DHT22;8010;53.986;12.106;2023-07-31T09:59:20;18.40;99.90
15819;DHT22;8010;53.986;12.106;2023-07-31T10:01:46;18.50;99.90
15819;DHT22;8010;53.986;12.106;2023-07-31T10:04:13;18.60;99.90
15819;DHT22;8010;53.986;12.106;2023-07-31T10:06:40;18.70;99.90
15819;DHT22;8010;53.986;12.106;2023-07-31T10:09:08;18.70;99.90
15819;DHT22;8010;53.986;12.106;2023-07-31T10:11:47;18.70;99.90
15819;DHT22;8010;53.986;12.106;2023-07-31T10:14:20;18.80;99.90
15819;DHT22;8010;53.986;12.106;2023-07-31T10:16:47;18.90;99.90
15819;DHT22;8010;53.986;12.106;2023-07-31T10:19:12;19.10;99.90
15819;DHT22;8010;53.986;12.106;2023-07-31T10:21:38;19.20;99.90
15819;DHT22;8010;53.986;12.106;2023-07-31T10:24:04;19.30;99.90
15819;DHT22;8010;53.986;12.106;2023-07-31T10:26:31;19.40;99.90
15819;DHT22;8010;53.986;12.106;2023-07-31T10:28:58;19.30;99.90
15819;DHT22;8010;53.986;12.106;2023-07-31T10:31:24;19.20;99.90
15819;DHT22;8010;53.986;12.106;2023-07-31T10:33:51;19.20;99.90
15819;DHT22;8010;53.986;12.106;2023-07-31T10:36:19;19.20;99.90
15819;DHT22;8010;53.986;12.106;2023-07-31T10:38:45;19.30;99.90
15819;DHT22;8010;53.986;12.106;2023-07-31T10:41:11;19.40;99.90
15819;DHT22;8010;53.986;12.106;2023-07-31T10:43:37;19.50;99.90
15819;DHT22;8010;53.986;12.106;2023-07-31T10:46:09;19.50;99.90
15819;DHT22;8010;53.986;12.106;2023-07-31T10:48:37;19.50;99.90
15819;DHT22;8010;53.986;12.106;2023-07-31T10:51:08;19.60;99.90
15819;DHT22;8010;53.986;12.106;2023-07-31T10:53:35;19.70;99.90
15819;DHT22;8010;53.986;12.106;2023-07-31T10:56:04;19.70;99.90
15819;DHT22;8010;53.986;12.106;2023-07-31T10:58:31;19.70;99.90
15819;DHT22;8010;53.986;12.106;2023-07-31T11:01:01;19.70;99.90
15819;DHT22;8010;53.986;12.106;2023-07-31T11:03:45;19.50;99.90
15819;DHT22;8010;53.986;12.106;2023-07-31T11:06:12;19.50;99.90
15819;DHT22;8010;53.986;12.106;2023-07-31T11:08:51;19.40;99.90
15819;DHT22;8010;53.986;12.106;2023-07-31T11:11:18;19.40;99.90
15819;DHT22;8010;53.986;12.106;2023-07-31T11:13:49;19.30;99.90
15819;DHT22;8010;53.986;12.106;2023-07-31T11:16:15;19.20;99.90
15819;DHT22;8010;53.986;12.106;2023-07-31T11:18:45;19.20;99.90
15819;DHT22;8010;53.986;12.106;2023-07-31T11:21:22;19.10;99.90
15819;DHT22;8010;53.986;12.106;2023-07-31T11:23:49;18.90;99.90
15819;DHT22;8010;53.986;12.106;2023-07-31T11:26:16;18.70;99.90
15819;DHT22;8010;53.986;12.106;2023-07-31T11:28:42;18.50;99.90
15819;DHT22;8010;53.986;12.106;2023-07-31T11:31:10;18.50;99.90
15819;DHT22;8010;53.986;12.106;2023-07-31T11:33:36;18.40;99.90
15819;DHT22;8010;53.986;12.106;2023-07-31T11:36:02;18.30;99.90
15819;DHT22;8010;53.986;12.106;2023-07-31T11:38:29;18.20;99.90
15819;DHT22;8010;53.986;12.106;2023-07-31T11:40:58;17.90;99.90
15819;DHT22;8010;53.986;12.106;2023-07-31T11:43:24;18.20;99.90
15819;DHT22;8010;53.986;12.106;2023-07-31T11:45:55;17.80;99.90
15819;DHT22;8010;53.986;12.106;2023-07-31T11:48:26;17.60;99.90
15819;DHT22;8010;53.986;12.106;2023-07-31T11:50:57;17.40;99.90
15819;DHT22;8010;53.986;12.106;2023-07-31T11:53:36;17.20;99.90
15819;DHT22;8010;53.986;12.106;2023-07-31T11:56:04;17.00;99.90
15819;DHT22;8010;53.986;12.106;2023-07-31T11:58:31;16.90;99.90
15819;DHT22;8010;53.986;12.106;2023-07-31T12:00:58;16.90;99.90
15819;DHT22;8010;53.986;12.106;2023-07-31T12:03:24;16.80;99.90
15819;DHT22;8010;53.986;12.106;2023-07-31T12:05:50;16.80;99.90
15819;DHT22;8010;53.986;12.106;2023-07-31T12:08:16;16.80;99.90
15819;DHT22;8010;53.986;12.106;2023-07-31T12:10:42;16.70;99.90
15819;DHT22;8010;53.986;12.106;2023-07-31T12:13:08;16.80;99.90
15819;DHT22;8010;53.986;12.106;2023-07-31T12:15:39;16.80;99.90
15819;DHT22;8010;53.986;12.106;2023-07-31T12:18:10;16.90;99.90
15819;DHT22;8010;53.986;12.106;2023-07-31T12:20:43;16.90;99.90
15819;DHT22;8010;53.986;12.106;2023-07-31T12:23:22;17.00;99.90
15819;DHT22;8010;53.986;12.106;2023-07-31T12:26:03;17.00;99.90
15819;DHT22;8010;53.986;12.106;2023-07-31T12:28:29;17.10;99.90
15819;DHT22;8010;53.986;12.106;2023-07-31T12:31:00;17.20;99.90
15819;DHT22;8010;53.986;12.106;2023-07-31T12:33:31;17.20;99.90
15819;DHT22;8010;53.986;12.106;2023-07-31T12:35:58;17.20;99.90
15819;DHT22;8010;53.986;12.106;2023-07-31T12:38:23;17.20;99.90
15819;DHT22;8010;53.986;12.106;2023-07-31T12:40:49;17.20;99.90
15819;DHT22;8010;53.986;12.106;2023-07-31T12:43:15;17.20;99.90
15819;DHT22;8010;53.986;12.106;2023-07-31T12:45:40;17.20;99.90
15819;DHT22;8010;53.986;12.106;2023-07-31T12:48:06;17.10;99.90
15819;DHT22;8010;53.986;12.106;2023-07-31T12:50:32;17.10;99.90
15819;DHT22;8010;53.986;12.106;2023-07-31T12:52:57;17.20;99.90
15819;DHT22;8010;53.986;12.106;2023-07-31T12:55:23;17.20;99.90
15819;DHT22;8010;53.986;12.106;2023-07-31T12:57:50;17.20;99.90
15819;DHT22;8010;53.986;12.106;2023-07-31T13:00:16;17.30;99.90
15819;DHT22;8010;53.986;12.106;2023-07-31T13:02:41;17.30;99.90
15819;DHT22;8010;53.986;12.106;2023-07-31T13:05:07;17.30;99.90
15819;DHT22;8010;53.986;12.106;2023-07-31T13:07:33;17.30;99.90
15819;DHT22;8010;53.986;12.106;2023-07-31T13:09:59;17.30;99.90
15819;DHT22;8010;53.986;12.106;2023-07-31T13:12:24;17.20;99.90
15819;DHT22;8010;53.986;12.106;2023-07-31T13:14:51;17.20;99.90
15819;DHT22;8010;53.986;12.106;2023-07-31T13:17:17;17.30;99.90
15819;DHT22;8010;53.986;12.106;2023-07-31T13:19:43;17.30;99.90
15819;DHT22;8010;53.986;12.106;2023-07-31T13:22:08;17.20;99.90
15819;DHT22;8010;53.986;12.106;2023-07-31T13:24:34;17.20;99.90
15819;DHT22;8010;53.986;12.106;2023-07-31T13:26:59;17.20;99.90
15819;DHT22;8010;53.986;12.106;2023-07-31T13:29:25;17.00;99.90
15819;DHT22;8010;53.986;12.106;2023-07-31T13:31:51;17.00;99.90
15819;DHT22;8010;53.986;12.106;2023-07-31T13:34:17;16.90;99.90
15819;DHT22;8010;53.986;12.106;2023-07-31T13:36:43;16.90;99.90
15819;DHT22;8010;53.986;12.106;2023-07-31T13:39:08;16.80;99.90
15819;DHT22;8010;53.986;12.106;2023-07-31T13:41:34;16.80;99.90
15819;DHT22;8010;53.986;12.106;2023-07-31T13:43:59;16.90;99.90
15819;DHT22;8010;53.986;12.106;2023-07-31T13:46:25;16.90;99.90
15819;DHT22;8010;53.986;12.106;2023-07-31T13:48:51;17.00;99.90
15819;DHT22;8010;53.986;12.106;2023-07-31T13:51:16;17.00;99.90
15819;DHT22;8010;53.986;12.106;2023-07-31T13:53:42;17.00;99.90
15819;DHT22;8010;53.986;12.106;2023-07-31T13:56:08;17.00;99.90
15819;DHT22;8010;53.986;12.106;2023-07-31T13:58:33;17.10;99.90
15819;DHT22;8010;53.986;12.106;2023-07-31T14:00:59;17.10;99.90
15819;DHT22;8010;53.986;12.106;2023-07-31T14:03:24;17.20;99.90
15819;DHT22;8010;53.986;12.106;2023-07-31T14:05:51;17.30;99.90
15819;DHT22;8010;53.986;12.106;2023-07-31T14:08:16;17.30;99.90
15819;DHT22;8010;53.986;12.106;2023-07-31T14:10:42;17.40;99.90
15819;DHT22;8010;53.986;12.106;2023-07-31T14:13:07;17.40;99.90
15819;DHT22;8010;53.986;12.106;2023-07-31T14:15:33;17.60;99.90
15819;DHT22;8010;53.986;12.106;2023-07-31T14:18:01;17.60;99.90
15819;DHT22;8010;53.986;12.106;2023-07-31T14:20:26;17.70;99.90
15819;DHT22;8010;53.986;12.106;2023-07-31T14:22:52;17.70;99.90
15819;DHT22;8010;53.986;12.106;2023-07-31T14:25:17;17.80;99.90
15819;DHT22;8010;53.986;12.106;2023-07-31T14:27:43;17.80;99.90
15819;DHT22;8010;53.986;12.106;2023-07-31T14:30:09;17.80;99.90
15819;DHT22;8010;53.986;12.106;2023-07-31T14:32:34;17.80;99.90
15819;DHT22;8010;53.986;12.106;2023-07-31T14:35:02;18.40;99.90
15819;DHT22;8010;53.986;12.106;2023-07-31T14:37:39;17.80;99.90
15819;DHT22;8010;53.986;12.106;2023-07-31T14:40:06;17.80;99.90
15819;DHT22;8010;53.986;12.106;2023-07-31T14:42:32;17.70;99.90
15819;DHT22;8010;53.986;12.106;2023-07-31T14:44:58;18.20;99.90
15819;DHT22;8010;53.986;12.106;2023-07-31T14:47:23;17.80;99.90
15819;DHT22;8010;53.986;12.106;2023-07-31T14:49:49;17.80;99.90
15819;DHT22;8010;53.986;12.106;2023-07-31T14:52:14;17.70;99.90
15819;DHT22;8010;53.986;12.106;2023-07-31T14:54:40;17.90;99.90
15819;DHT22;8010;53.986;12.106;2023-07-31T14:57:05;18.10;99.90
15819;DHT22;8010;53.986;12.106;2023-07-31T14:59:31;18.20;99.90
15819;DHT22;8010;53.986;12.106;2023-07-31T15:01:57;18.20;99.90
15819;DHT22;8010;53.986;12.106;2023-07-31T15:04:22;18.10;99.90
15819;DHT22;8010;53.986;12.106;2023-07-31T15:06:49;18.00;99.90
15819;DHT22;8010;53.986;12.106;2023-07-31T15:09:15;17.80;99.90
15819;DHT22;8010;53.986;12.106;2023-07-31T15:11:40;17.70;99.90
15819;DHT22;8010;53.986;12.106;2023-07-31T15:14:06;17.70;99.90
15819;DHT22;8010;53.986;12.106;2023-07-31T15:16:31;17.60;99.90
15819;DHT22;8010;53.986;12.106;2023-07-31T15:18:57;17.60;99.90
15819;DHT22;8010;53.986;12.106;2023-07-31T15:21:23;17.60;99.90
15819;DHT22;8010;53.986;12.106;2023-07-31T15:23:48;17.60;99.90
15819;DHT22;8010;53.986;12.106;2023-07-31T15:26:13;17.60;99.90
15819;DHT22;8010;53.986;12.106;2023-07-31T15:28:39;17.50;99.90
15819;DHT22;8010;53.986;12.106;2023-07-31T15:31:05;17.50;99.90